METAR Data

Data at: 0952 UTC 23 Jul 2019

METAR for:KATL (Atlanta/Hartsfield-J, GA, US)
Text:KATL 230934Z COR 23004KT 10SM FEW009 BKN022 BKN030 BKN180 BKN250 23/22 A2992 RMK AO2 LTG DSNT W CB DSNT W-N T02330217
Temperature: 23.3°C ( 74°F)
Dewpoint: 21.7°C ( 71°F) [RH = 91%]
Pressure (altimeter):29.92 inches Hg (1013.3 mb)
Winds:from the SW (230 degrees) at 5 MPH (4 knots; 2.1 m/s)
Visibility:10 or more sm (16+ km)
Ceiling:2200 feet AGL
Clouds: few clouds at 900 feet AGL, broken clouds at 2200 feet AGL, broken clouds at 3000 feet AGL, broken clouds at 18000 feet AGL